createdAt,value
2019-03-05T00:02:21.271Z,3.70
2019-03-05T00:04:51.978Z,3.70
2019-03-05T00:07:22.069Z,3.70
2019-03-05T00:09:52.494Z,3.60
2019-03-05T00:12:22.844Z,3.70
2019-03-05T00:14:52.612Z,3.60
2019-03-05T00:17:23.037Z,3.60
2019-03-05T00:19:53.754Z,3.60
2019-03-05T00:22:24.168Z,3.60
2019-03-05T00:25:19.508Z,3.60
2019-03-05T00:28:12.154Z,3.60
2019-03-05T00:31:16.210Z,3.70
2019-03-05T00:34:19.638Z,3.70
2019-03-05T00:36:57.008Z,3.80
2019-03-05T00:39:55.922Z,3.80
2019-03-05T00:43:13.310Z,3.90
2019-03-05T00:46:39.725Z,3.90
2019-03-05T00:50:05.664Z,4.00
2019-03-05T00:53:02.778Z,4.00
2019-03-05T00:56:03.073Z,4.10
2019-03-05T00:59:09.839Z,4.10
2019-03-05T01:02:06.805Z,4.00
2019-03-05T01:05:17.767Z,3.90
2019-03-05T01:07:47.790Z,3.90
2019-03-05T01:10:19.431Z,4.00
2019-03-05T01:12:49.867Z,4.00
2019-03-05T01:15:20.355Z,4.10
2019-03-05T01:17:50.432Z,4.20
2019-03-05T01:20:20.459Z,4.10
2019-03-05T01:22:50.774Z,4.10
2019-03-05T01:25:27.959Z,4.00
2019-03-05T01:27:58.472Z,4.00
2019-03-05T01:30:41.379Z,3.90
2019-03-05T01:33:13.859Z,3.80
2019-03-05T01:35:51.876Z,3.70
2019-03-05T01:38:22.239Z,3.70
2019-03-05T01:40:55.805Z,3.70
2019-03-05T01:43:25.833Z,3.80
2019-03-05T01:45:55.830Z,3.90
2019-03-05T01:48:25.820Z,4.00
2019-03-05T01:50:56.455Z,4.00
2019-03-05T01:53:26.541Z,4.00
2019-03-05T01:55:56.614Z,3.90
2019-03-05T01:58:25.878Z,3.90
2019-03-05T02:00:56.233Z,3.90
2019-03-05T02:03:26.556Z,3.90
2019-03-05T02:05:57.391Z,3.90
2019-03-05T02:08:27.779Z,4.00
2019-03-05T02:10:58.153Z,4.10
2019-03-05T02:13:28.413Z,4.00
2019-03-05T02:15:59.083Z,3.90
2019-03-05T02:18:29.419Z,3.90
2019-03-05T02:20:59.881Z,3.90
2019-03-05T02:23:40.522Z,3.90
2019-03-05T02:26:50.175Z,3.90
2019-03-05T02:29:57.034Z,3.90
2019-03-05T02:33:29.531Z,3.80
2019-03-05T02:36:25.199Z,3.80
2019-03-05T02:39:26.198Z,3.80
2019-03-05T02:42:24.389Z,3.80
2019-03-05T02:45:50.811Z,3.80
2019-03-05T02:48:51.374Z,3.80
2019-03-05T02:51:51.762Z,3.70
2019-03-05T02:54:51.902Z,3.70
2019-03-05T02:57:20.218Z,3.90
2019-03-05T02:59:50.231Z,4.10
2019-03-05T03:02:39.674Z,4.10
2019-03-05T03:05:18.371Z,4.20
2019-03-05T03:07:48.765Z,4.10
2019-03-05T03:10:21.479Z,3.90
2019-03-05T03:12:51.523Z,3.70
2019-03-05T03:15:21.961Z,3.40
2019-03-05T03:17:52.962Z,3.30
2019-03-05T03:20:24.379Z,3.10
2019-03-05T03:22:54.639Z,3.00
2019-03-05T03:25:25.750Z,2.90
2019-03-05T03:27:55.500Z,2.90
2019-03-05T03:30:26.758Z,3.10
2019-03-05T03:33:08.415Z,3.10
2019-03-05T03:35:38.794Z,3.20
2019-03-05T03:38:09.075Z,3.30
2019-03-05T03:40:38.344Z,3.40
2019-03-05T03:43:08.699Z,3.40
2019-03-05T03:45:39.008Z,3.40
2019-03-05T03:48:09.356Z,3.40
2019-03-05T03:50:39.367Z,3.40
2019-03-05T03:53:09.393Z,3.30
2019-03-05T03:55:39.068Z,3.20
2019-03-05T03:58:09.371Z,3.20
2019-03-05T04:00:39.656Z,3.10
2019-03-05T04:03:10.328Z,3.10
2019-03-05T04:05:40.255Z,3.20
2019-03-05T04:08:10.633Z,3.30
2019-03-05T04:10:41.811Z,3.40
2019-03-05T04:13:11.858Z,3.50
2019-03-05T04:15:42.094Z,3.50
2019-03-05T04:18:12.107Z,3.60
2019-03-05T04:20:48.789Z,3.70
2019-03-05T04:23:19.118Z,3.70
2019-03-05T04:25:49.378Z,3.70
2019-03-05T04:28:19.152Z,3.80
2019-03-05T04:30:49.168Z,3.80
2019-03-05T04:33:19.944Z,3.80
2019-03-05T04:35:49.987Z,3.70
2019-03-05T04:38:20.340Z,3.70
2019-03-05T04:40:50.672Z,3.80
2019-03-05T04:43:20.300Z,3.80
2019-03-05T04:45:57.759Z,3.90
2019-03-05T04:48:28.094Z,3.80
2019-03-05T04:51:03.948Z,3.80
2019-03-05T04:53:34.220Z,3.80
2019-03-05T04:56:04.175Z,3.90
2019-03-05T04:58:34.192Z,3.90
2019-03-05T05:01:04.389Z,3.70
2019-03-05T05:03:34.327Z,3.70
2019-03-05T05:06:04.643Z,3.60
2019-03-05T05:08:34.266Z,3.50
2019-03-05T05:11:03.962Z,3.50
2019-03-05T05:13:33.678Z,3.50
2019-03-05T05:16:03.997Z,3.50
2019-03-05T05:18:34.231Z,3.50
2019-03-05T05:21:04.513Z,3.60
2019-03-05T05:23:34.865Z,3.50
2019-03-05T05:26:05.301Z,3.50
2019-03-05T05:28:35.339Z,3.50
2019-03-05T05:31:05.403Z,3.40
2019-03-05T05:33:36.135Z,3.40
2019-03-05T05:36:06.092Z,3.30
2019-03-05T05:38:36.858Z,3.30
2019-03-05T05:41:06.536Z,3.30
2019-03-05T05:43:36.146Z,3.30
2019-03-05T05:46:06.628Z,3.30
2019-03-05T05:48:36.602Z,3.30
2019-03-05T05:51:07.009Z,3.30
2019-03-05T05:53:37.780Z,3.30
2019-03-05T05:56:07.340Z,3.30
2019-03-05T05:58:37.279Z,3.30
2019-03-05T06:01:11.071Z,3.30
2019-03-05T06:03:40.807Z,3.20
2019-03-05T06:06:10.906Z,3.20
2019-03-05T06:08:40.619Z,3.20
2019-03-05T06:11:10.216Z,3.20
2019-03-05T06:13:40.236Z,3.20
2019-03-05T06:16:09.874Z,3.30
2019-03-05T06:18:39.879Z,3.30
2019-03-05T06:21:10.583Z,3.20
2019-03-05T06:23:40.522Z,3.30
2019-03-05T06:26:10.497Z,3.40
2019-03-05T06:28:40.859Z,3.50
2019-03-05T06:31:11.313Z,3.40
2019-03-05T06:33:40.995Z,3.40
2019-03-05T06:36:10.603Z,3.40
2019-03-05T06:38:39.931Z,3.50
2019-03-05T06:41:10.591Z,3.50
2019-03-05T06:43:41.151Z,3.60
2019-03-05T06:46:11.799Z,3.70
2019-03-05T06:48:41.394Z,3.80
2019-03-05T06:51:11.507Z,4.00
2019-03-05T06:53:41.838Z,4.00
2019-03-05T06:56:12.214Z,4.10
2019-03-05T06:58:42.894Z,4.10
2019-03-05T07:01:13.205Z,4.30
2019-03-05T07:03:43.564Z,4.40
2019-03-05T07:06:51.282Z,4.50
2019-03-05T07:09:58.742Z,4.60
2019-03-05T07:12:56.170Z,4.60
2019-03-05T07:16:01.977Z,4.70
2019-03-05T07:18:44.644Z,4.70
2019-03-05T07:21:54.959Z,4.60
2019-03-05T07:24:38.892Z,4.70
2019-03-05T07:27:10.180Z,4.70
2019-03-05T07:29:40.372Z,4.70
2019-03-05T07:32:10.407Z,4.70
2019-03-05T07:34:42.623Z,4.70
2019-03-05T07:37:13.611Z,4.70
2019-03-05T07:39:44.338Z,4.60
2019-03-05T07:42:15.068Z,4.70
2019-03-05T07:44:45.370Z,4.80
2019-03-05T07:47:14.683Z,4.80
2019-03-05T07:49:45.183Z,4.90
2019-03-05T07:52:15.283Z,5.00
2019-03-05T07:54:45.969Z,5.10
2019-03-05T07:57:16.330Z,5.20
2019-03-05T07:59:46.702Z,5.30
2019-03-05T08:02:17.178Z,5.40
2019-03-05T08:04:47.235Z,5.50
2019-03-05T08:07:16.916Z,5.50
2019-03-05T08:09:46.622Z,5.70
2019-03-05T08:12:50.139Z,5.60
2019-03-05T08:16:27.295Z,5.50
2019-03-05T08:18:57.387Z,5.50
2019-03-05T08:21:27.461Z,5.50
2019-03-05T08:23:57.500Z,5.50
2019-03-05T08:26:27.527Z,5.50
2019-03-05T08:28:58.270Z,5.40
2019-03-05T08:31:28.562Z,5.30
2019-03-05T08:33:59.246Z,5.10
2019-03-05T08:36:29.639Z,5.10
2019-03-05T08:39:00.434Z,5.20
2019-03-05T08:41:31.132Z,5.30
2019-03-05T08:44:00.815Z,5.50
2019-03-05T08:46:30.846Z,5.50
2019-03-05T08:49:00.546Z,5.40
2019-03-05T08:51:31.168Z,5.40
2019-03-05T08:54:01.822Z,5.40
2019-03-05T08:56:31.417Z,5.40
2019-03-05T08:59:01.470Z,5.40
2019-03-05T09:01:31.801Z,5.50
2019-03-05T09:04:02.215Z,5.50
2019-03-05T09:06:31.817Z,5.60
2019-03-05T09:09:01.955Z,5.70
2019-03-05T09:11:31.797Z,5.80
2019-03-05T09:14:02.461Z,6.00
2019-03-05T09:16:32.888Z,6.10
2019-03-05T09:19:03.330Z,6.30
2019-03-05T09:21:32.657Z,6.50
2019-03-05T09:24:02.415Z,6.50
2019-03-05T09:26:33.043Z,6.60
2019-03-05T09:29:03.111Z,6.80
2019-03-05T09:31:33.189Z,6.70
2019-03-05T09:34:03.932Z,6.70
2019-03-05T09:36:34.015Z,6.90
2019-03-05T09:39:06.639Z,7.00
2019-03-05T09:41:37.074Z,7.10
2019-03-05T09:44:07.484Z,7.20
2019-03-05T09:46:37.856Z,7.10
2019-03-05T09:49:07.479Z,7.10
2019-03-05T09:51:37.147Z,7.20
2019-03-05T09:54:06.452Z,7.10
2019-03-05T09:56:36.811Z,7.10
2019-03-05T09:59:07.315Z,7.20
2019-03-05T10:01:37.578Z,7.40
2019-03-05T10:04:07.604Z,7.50
2019-03-05T10:06:38.279Z,7.40
2019-03-05T10:09:09.484Z,7.70
2019-03-05T10:11:39.182Z,7.60
2019-03-05T10:14:09.478Z,7.70
2019-03-05T10:16:39.839Z,7.90
2019-03-05T10:19:10.244Z,8.00
2019-03-05T10:21:46.177Z,8.20
2019-03-05T10:24:12.170Z,8.30
2019-03-05T10:26:42.880Z,8.30
2019-03-05T10:29:13.578Z,8.40
2019-03-05T10:31:43.808Z,8.40
2019-03-05T10:34:14.174Z,8.40
2019-03-05T10:36:44.585Z,8.30
2019-03-05T10:39:30.957Z,8.30
2019-03-05T10:41:59.136Z,8.50
2019-03-05T10:44:29.124Z,8.80
2019-03-05T10:46:59.203Z,8.80
2019-03-05T10:49:29.923Z,8.80
2019-03-05T10:52:00.064Z,8.80
2019-03-05T10:54:29.436Z,8.90
2019-03-05T10:57:00.103Z,9.00
2019-03-05T10:59:30.455Z,8.80
2019-03-05T11:02:00.478Z,8.80
2019-03-05T11:04:30.755Z,9.00
2019-03-05T11:07:01.252Z,9.30
2019-03-05T11:09:31.509Z,9.30
2019-03-05T11:12:01.613Z,8.90
2019-03-05T11:14:31.983Z,9.00
2019-03-05T11:17:01.755Z,9.00
2019-03-05T11:19:32.027Z,9.10
2019-03-05T11:22:02.053Z,9.10
2019-03-05T11:24:32.127Z,9.20
2019-03-05T11:27:02.534Z,9.30
2019-03-05T11:29:32.892Z,9.30
2019-03-05T11:32:02.679Z,9.30
2019-03-05T11:34:32.409Z,9.30
2019-03-05T11:37:04.046Z,9.30
2019-03-05T11:39:34.154Z,9.20
2019-03-05T11:42:04.360Z,9.20
2019-03-05T11:44:34.920Z,9.20
2019-03-05T11:47:05.546Z,9.20
2019-03-05T11:49:37.091Z,9.20
2019-03-05T11:52:07.054Z,9.10
2019-03-05T11:54:37.134Z,9.10
2019-03-05T11:57:07.038Z,9.20
2019-03-05T11:59:37.750Z,9.30
2019-03-05T12:02:09.831Z,9.60
2019-03-05T12:04:40.043Z,9.50
2019-03-05T12:07:10.392Z,9.40
2019-03-05T12:09:41.236Z,9.40
2019-03-05T12:12:11.366Z,9.20
2019-03-05T12:14:42.296Z,9.00
2019-03-05T12:17:13.116Z,9.20
2019-03-05T12:19:43.135Z,9.40
2019-03-05T12:22:13.885Z,9.30
2019-03-05T12:24:43.976Z,9.20
2019-03-05T12:27:14.002Z,9.30
2019-03-05T12:29:43.646Z,9.20
2019-03-05T12:32:15.376Z,9.10
2019-03-05T12:34:46.137Z,9.10
2019-03-05T12:37:16.510Z,9.50
2019-03-05T12:39:46.472Z,9.50
2019-03-05T12:42:16.508Z,9.60
2019-03-05T12:44:46.238Z,9.40
2019-03-05T12:47:16.601Z,9.30
2019-03-05T12:49:47.238Z,9.10
2019-03-05T12:52:17.890Z,9.10
2019-03-05T12:54:48.607Z,9.20
2019-03-05T12:57:18.717Z,9.10
2019-03-05T12:59:49.035Z,9.10
2019-03-05T13:02:19.456Z,9.00
2019-03-05T13:04:49.079Z,8.80
2019-03-05T13:07:19.771Z,8.70
2019-03-05T13:09:52.578Z,8.60
2019-03-05T13:12:22.406Z,8.60
2019-03-05T13:14:53.144Z,8.70
2019-03-05T13:17:25.204Z,8.70
2019-03-05T13:19:55.701Z,8.70
2019-03-05T13:22:28.882Z,8.80
2019-03-05T13:24:58.018Z,8.70
2019-03-05T13:27:28.731Z,8.60
2019-03-05T13:29:58.718Z,8.70
2019-03-05T13:32:29.034Z,8.80
2019-03-05T13:34:59.093Z,8.90
2019-03-05T13:37:29.488Z,8.80
2019-03-05T13:39:59.961Z,8.70
2019-03-05T13:42:33.294Z,8.80
2019-03-05T13:45:05.376Z,8.60
2019-03-05T13:47:37.195Z,8.60
2019-03-05T13:50:46.559Z,8.50
2019-03-05T13:53:39.853Z,8.40
2019-03-05T13:57:05.316Z,8.30
2019-03-05T13:59:49.454Z,8.20
2019-03-05T14:03:00.848Z,8.20
2019-03-05T14:06:06.572Z,8.20
2019-03-05T14:09:08.984Z,8.30
2019-03-05T14:11:39.495Z,8.30
2019-03-05T14:14:11.839Z,8.20
2019-03-05T14:16:41.843Z,8.10
2019-03-05T14:19:11.523Z,8.20
2019-03-05T14:21:41.580Z,8.20
2019-03-05T14:24:11.726Z,8.00
2019-03-05T14:26:41.855Z,7.90
2019-03-05T14:29:11.471Z,7.80
2019-03-05T14:31:41.994Z,7.70
2019-03-05T14:34:12.203Z,7.70
2019-03-05T14:36:42.570Z,7.70
2019-03-05T14:39:25.012Z,7.70
2019-03-05T14:41:55.695Z,7.60
2019-03-05T14:44:26.094Z,7.50
2019-03-05T14:46:57.537Z,7.40
2019-03-05T14:49:28.769Z,7.40
2019-03-05T14:51:58.488Z,7.40
2019-03-05T14:54:28.884Z,7.40
2019-03-05T14:56:58.989Z,7.30
2019-03-05T14:59:29.464Z,7.30
2019-03-05T15:02:02.154Z,7.30
2019-03-05T15:04:31.398Z,7.30
2019-03-05T15:07:04.553Z,7.30
2019-03-05T15:09:34.265Z,7.20
2019-03-05T15:12:05.498Z,7.10
2019-03-05T15:14:36.480Z,7.00
2019-03-05T15:17:06.612Z,7.00
2019-03-05T15:19:36.811Z,6.90
2019-03-05T15:22:07.604Z,6.90
2019-03-05T15:24:38.378Z,6.90
2019-03-05T15:27:09.145Z,6.80
2019-03-05T15:29:38.838Z,6.70
2019-03-05T15:32:09.203Z,6.70
2019-03-05T15:35:14.740Z,6.60
2019-03-05T15:37:44.761Z,6.50
2019-03-05T15:40:15.344Z,6.40
2019-03-05T15:42:45.650Z,6.40
2019-03-05T15:45:17.049Z,6.40
2019-03-05T15:47:47.546Z,6.30
2019-03-05T15:50:19.353Z,6.30
2019-03-05T15:52:49.742Z,6.40
2019-03-05T15:55:20.239Z,6.40
2019-03-05T15:57:49.950Z,6.30
2019-03-05T16:00:22.520Z,6.30
2019-03-05T16:02:52.656Z,6.20
2019-03-05T16:05:22.897Z,6.10
2019-03-05T16:07:53.293Z,6.10
2019-03-05T16:10:23.712Z,6.00
2019-03-05T16:12:53.431Z,5.90
2019-03-05T16:15:23.127Z,5.90
2019-03-05T16:17:54.397Z,5.80
2019-03-05T16:20:26.084Z,5.70
2019-03-05T16:22:57.471Z,5.60
2019-03-05T16:25:28.030Z,5.50
2019-03-05T16:27:58.043Z,5.40
2019-03-05T16:30:46.186Z,5.30
2019-03-05T16:33:36.967Z,5.20
2019-03-05T16:36:42.019Z,5.20
2019-03-05T16:39:31.881Z,5.10
2019-03-05T16:42:24.580Z,5.00
2019-03-05T16:45:10.142Z,5.00
2019-03-05T16:48:02.362Z,5.00
2019-03-05T16:51:01.023Z,5.00
2019-03-05T16:53:49.592Z,5.00
2019-03-05T16:56:57.199Z,5.00
2019-03-05T16:59:58.306Z,5.00
2019-03-05T17:02:37.167Z,5.00
2019-03-05T17:05:28.954Z,4.90
2019-03-05T17:08:35.372Z,4.90
2019-03-05T17:11:13.079Z,4.80
2019-03-05T17:13:43.719Z,4.70
2019-03-05T17:16:14.803Z,4.60
2019-03-05T17:18:45.211Z,4.60
2019-03-05T17:21:15.315Z,4.60
2019-03-05T17:23:46.404Z,4.60
2019-03-05T17:26:16.841Z,4.60
2019-03-05T17:28:47.179Z,4.60
2019-03-05T17:31:17.091Z,4.50
2019-03-05T17:33:47.516Z,4.50
2019-03-05T17:36:18.263Z,4.40
2019-03-05T17:38:48.767Z,4.40
2019-03-05T17:41:19.217Z,4.40
2019-03-05T17:43:49.502Z,4.30
2019-03-05T17:46:19.653Z,4.20
2019-03-05T17:48:50.112Z,4.20
2019-03-05T17:51:20.293Z,4.20
2019-03-05T17:53:50.775Z,4.20
2019-03-05T17:56:20.822Z,4.20
2019-03-05T17:58:50.591Z,4.10
2019-03-05T18:01:20.771Z,4.20
2019-03-05T18:03:51.231Z,4.20
2019-03-05T18:06:21.566Z,4.20
2019-03-05T18:08:51.653Z,4.20
2019-03-05T18:11:22.418Z,4.20
2019-03-05T18:13:53.207Z,4.20
2019-03-05T18:16:23.302Z,4.20
2019-03-05T18:18:53.451Z,4.20
2019-03-05T18:21:24.119Z,4.20
2019-03-05T18:23:54.466Z,4.10
2019-03-05T18:26:24.851Z,4.20
2019-03-05T18:28:55.268Z,4.10
2019-03-05T18:31:26.115Z,4.10
2019-03-05T18:33:56.474Z,4.10
2019-03-05T18:37:28.944Z,4.00
2019-03-05T18:43:44.482Z,4.10
2019-03-05T18:46:15.036Z,4.10
2019-03-05T18:48:45.940Z,4.10
2019-03-05T18:51:20.836Z,4.10
2019-03-05T18:53:51.549Z,4.10
2019-03-05T18:56:32.239Z,4.10
2019-03-05T18:59:03.049Z,4.10
2019-03-05T19:01:33.555Z,4.20
2019-03-05T19:04:03.893Z,4.20
2019-03-05T19:06:33.594Z,4.20
2019-03-05T19:10:25.119Z,4.20
2019-03-05T19:16:52.846Z,4.20
2019-03-05T19:23:12.827Z,4.20
2019-03-05T19:25:43.383Z,4.20
2019-03-05T19:28:13.934Z,4.20
2019-03-05T19:30:43.703Z,4.20
2019-03-05T19:33:13.891Z,4.20
2019-03-05T19:35:43.956Z,4.20
2019-03-05T19:38:14.233Z,4.20
2019-03-05T19:40:44.394Z,4.20
2019-03-05T19:43:14.271Z,4.30
2019-03-05T19:45:45.097Z,4.20
2019-03-05T19:48:15.688Z,4.30
2019-03-05T19:50:46.494Z,4.20
2019-03-05T19:53:16.621Z,4.20
2019-03-05T19:55:46.822Z,4.30
2019-03-05T19:58:17.528Z,4.20
2019-03-05T20:00:57.141Z,4.20
2019-03-05T20:03:27.661Z,4.20
2019-03-05T20:05:57.373Z,4.20
2019-03-05T20:08:26.971Z,4.30
2019-03-05T20:10:57.194Z,4.20
2019-03-05T20:13:26.997Z,4.20
2019-03-05T20:16:17.113Z,4.20
2019-03-05T20:18:47.254Z,4.20
2019-03-05T20:21:18.037Z,4.20
2019-03-05T20:23:48.487Z,4.20
2019-03-05T20:26:17.902Z,4.20
2019-03-05T20:28:48.096Z,4.30
2019-03-05T20:31:18.419Z,4.20
2019-03-05T20:33:48.718Z,4.20
2019-03-05T20:36:19.711Z,4.30
2019-03-05T20:38:50.003Z,4.30
2019-03-05T20:41:20.966Z,4.30
2019-03-05T20:43:51.074Z,4.30
2019-03-05T20:46:24.960Z,4.30
2019-03-05T20:48:55.888Z,4.30
2019-03-05T20:51:25.721Z,4.30
2019-03-05T20:53:56.123Z,4.30
2019-03-05T20:56:55.612Z,4.30
2019-03-05T21:00:29.045Z,4.30
2019-03-05T21:03:00.764Z,4.30
2019-03-05T21:09:27.855Z,4.40
2019-03-05T21:11:58.278Z,4.50
2019-03-05T21:14:28.027Z,4.50
2019-03-05T21:16:58.212Z,4.60
2019-03-05T21:19:28.985Z,4.60
2019-03-05T21:21:59.308Z,4.60
2019-03-05T21:24:38.912Z,4.60
2019-03-05T21:27:08.671Z,4.60
2019-03-05T21:29:38.807Z,4.60
2019-03-05T21:32:08.467Z,4.60
2019-03-05T21:34:38.848Z,4.60
2019-03-05T21:37:08.990Z,4.60
2019-03-05T21:39:40.792Z,4.60
2019-03-05T21:42:10.993Z,4.60
2019-03-05T21:44:41.381Z,4.60
2019-03-05T21:47:11.607Z,4.60
2019-03-05T21:49:41.278Z,4.60
2019-03-05T21:52:11.481Z,4.60
2019-03-05T21:54:41.592Z,4.60
2019-03-05T21:57:11.728Z,4.60
2019-03-05T21:59:42.178Z,4.60
2019-03-05T22:02:12.312Z,4.60
2019-03-05T22:04:42.855Z,4.50
2019-03-05T22:07:13.928Z,4.60
2019-03-05T22:09:43.961Z,4.60
2019-03-05T22:12:14.130Z,4.60
2019-03-05T22:14:44.251Z,4.60
2019-03-05T22:17:14.623Z,4.60
2019-03-05T22:19:44.684Z,4.60
2019-03-05T22:22:14.335Z,4.60
2019-03-05T22:24:44.840Z,4.70
2019-03-05T22:27:15.364Z,4.70
2019-03-05T22:29:46.360Z,4.70
2019-03-05T22:32:16.471Z,4.70
2019-03-05T22:34:46.501Z,4.80
2019-03-05T22:37:16.914Z,4.90
2019-03-05T22:39:47.314Z,4.90
2019-03-05T22:42:17.666Z,4.90
2019-03-05T22:44:47.656Z,4.90
2019-03-05T22:47:17.685Z,4.90
2019-03-05T22:49:48.522Z,5.00
2019-03-05T22:52:17.994Z,5.00
2019-03-05T22:54:48.431Z,5.00
2019-03-05T22:57:18.488Z,5.00
2019-03-05T22:59:47.810Z,5.10
2019-03-05T23:02:18.138Z,5.10
2019-03-05T23:04:48.607Z,5.20
2019-03-05T23:07:18.993Z,5.20
2019-03-05T23:09:49.074Z,5.20
2019-03-05T23:12:20.001Z,5.10
2019-03-05T23:14:50.293Z,4.90
2019-03-05T23:17:20.859Z,4.90
2019-03-05T23:19:50.615Z,4.80
2019-03-05T23:22:21.230Z,4.80
2019-03-05T23:24:51.205Z,4.90
2019-03-05T23:27:20.876Z,4.80
2019-03-05T23:29:51.187Z,4.90
2019-03-05T23:32:21.386Z,5.00
2019-03-05T23:34:51.629Z,5.10
2019-03-05T23:37:21.768Z,5.10
2019-03-05T23:39:51.854Z,5.10
2019-03-05T23:42:22.732Z,5.20
2019-03-05T23:44:52.869Z,5.20
2019-03-05T23:47:22.613Z,5.10
2019-03-05T23:49:53.022Z,5.00
2019-03-05T23:52:23.795Z,4.90
2019-03-05T23:54:53.498Z,4.90
2019-03-05T23:57:23.996Z,4.80
2019-03-05T23:59:54.762Z,4.80
